createdAt,value
2022-09-22T00:02:43.265Z,15.70
2022-09-22T00:05:30.863Z,15.60
2022-09-22T00:08:18.375Z,15.50
2022-09-22T00:11:20.180Z,15.70
2022-09-22T00:14:12.185Z,15.70
2022-09-22T00:17:01.965Z,15.40
2022-09-22T00:19:49.566Z,15.30
2022-09-22T00:22:37.134Z,15.20
2022-09-22T00:25:24.706Z,15.10
2022-09-22T00:28:13.234Z,15.10
2022-09-22T00:31:17.130Z,15.00
2022-09-22T00:34:05.184Z,15.00
2022-09-22T00:36:53.210Z,15.00
2022-09-22T00:39:40.789Z,15.00
2022-09-22T00:42:28.995Z,15.00
2022-09-22T00:45:16.581Z,15.10
2022-09-22T00:48:04.464Z,15.10
2022-09-22T00:50:56.357Z,15.20
2022-09-22T00:53:45.279Z,15.10
2022-09-22T00:56:57.324Z,15.20
2022-09-22T00:59:49.944Z,15.20
2022-09-22T01:02:38.370Z,15.20
2022-09-22T01:05:30.129Z,15.20
2022-09-22T01:08:21.020Z,15.10
2022-09-22T01:11:08.990Z,15.10
2022-09-22T01:14:23.755Z,15.10
2022-09-22T01:17:53.354Z,15.10
2022-09-22T01:20:58.967Z,15.00
2022-09-22T01:24:02.326Z,14.90
2022-09-22T01:27:10.574Z,15.00
2022-09-22T01:30:32.531Z,15.00
2022-09-22T01:34:04.699Z,14.90
2022-09-22T01:37:13.085Z,14.70
2022-09-22T01:40:18.903Z,14.60
2022-09-22T01:43:15.814Z,14.30
2022-09-22T01:46:16.097Z,14.40
2022-09-22T01:49:10.139Z,14.60
2022-09-22T01:52:10.090Z,14.50
2022-09-22T01:55:13.355Z,14.60
2022-09-22T01:58:17.045Z,14.60
2022-09-22T02:01:15.286Z,14.60
2022-09-22T02:04:18.720Z,14.50
2022-09-22T02:07:15.984Z,14.40
2022-09-22T02:10:11.736Z,14.40
2022-09-22T02:13:00.979Z,14.50
2022-09-22T02:16:00.686Z,14.60
2022-09-22T02:19:12.599Z,14.60
2022-09-22T02:22:01.769Z,14.50
2022-09-22T02:24:49.425Z,14.50
2022-09-22T02:27:37.084Z,14.50
2022-09-22T02:30:26.340Z,14.50
2022-09-22T02:33:15.469Z,14.50
2022-09-22T02:36:56.688Z,13.90
2022-09-22T02:40:06.123Z,13.70
2022-09-22T02:43:31.664Z,13.80
2022-09-22T02:46:40.442Z,14.00
2022-09-22T02:49:29.616Z,14.10
2022-09-22T02:52:22.834Z,14.30
2022-09-22T02:55:13.399Z,14.40
2022-09-22T02:58:01.016Z,14.30
2022-09-22T03:00:48.699Z,14.30
2022-09-22T03:03:36.279Z,14.40
2022-09-22T03:06:23.857Z,14.40
2022-09-22T03:09:11.464Z,14.50
2022-09-22T03:11:59.121Z,14.40
2022-09-22T03:14:46.800Z,14.50
2022-09-22T03:17:35.480Z,14.40
2022-09-22T03:20:23.300Z,14.40
2022-09-22T03:23:11.061Z,14.40
2022-09-22T03:25:58.602Z,14.30
2022-09-22T03:28:46.705Z,14.20
2022-09-22T03:31:34.432Z,14.10
2022-09-22T03:34:22.000Z,14.10
2022-09-22T03:37:09.588Z,14.20
2022-09-22T03:39:57.185Z,14.40
2022-09-22T03:42:45.192Z,14.30
2022-09-22T03:45:33.260Z,14.30
2022-09-22T03:48:20.771Z,14.50
2022-09-22T03:51:08.477Z,14.10
2022-09-22T03:53:56.015Z,14.00
2022-09-22T03:56:43.740Z,13.90
2022-09-22T03:59:31.458Z,13.90
2022-09-22T04:02:19.051Z,13.90
2022-09-22T04:05:07.692Z,13.70
2022-09-22T04:07:55.219Z,13.70
2022-09-22T04:10:45.035Z,13.70
2022-09-22T04:13:33.241Z,13.70
2022-09-22T04:16:21.302Z,13.70
2022-09-22T04:19:12.615Z,13.70
2022-09-22T04:22:00.183Z,13.70
2022-09-22T04:24:47.797Z,13.80
2022-09-22T04:27:35.476Z,13.70
2022-09-22T04:30:23.026Z,13.60
2022-09-22T04:33:11.775Z,13.70
2022-09-22T04:35:59.480Z,13.70
2022-09-22T04:38:47.141Z,13.60
2022-09-22T04:41:34.681Z,13.60
2022-09-22T04:44:22.315Z,13.60
2022-09-22T04:47:09.913Z,13.60
2022-09-22T04:49:57.642Z,13.60
2022-09-22T04:52:47.781Z,13.60
2022-09-22T04:55:35.829Z,13.60
2022-09-22T04:58:23.422Z,13.80
2022-09-22T05:01:11.408Z,13.60
2022-09-22T05:03:59.534Z,13.70
2022-09-22T05:06:47.170Z,13.80
2022-09-22T05:09:34.770Z,13.70
2022-09-22T05:12:22.352Z,13.70
2022-09-22T05:15:12.610Z,13.70
2022-09-22T05:18:00.834Z,13.70
2022-09-22T05:20:48.395Z,13.70
2022-09-22T05:23:36.677Z,13.80
2022-09-22T05:26:25.100Z,13.80
2022-09-22T05:29:12.680Z,13.90
2022-09-22T05:32:00.395Z,14.10
2022-09-22T05:34:48.114Z,14.20
2022-09-22T05:37:35.669Z,14.20
2022-09-22T05:40:25.157Z,14.40
2022-09-22T05:43:13.712Z,14.60
2022-09-22T05:46:01.398Z,14.90
2022-09-22T05:48:49.095Z,15.70
2022-09-22T05:51:36.605Z,16.50
2022-09-22T05:54:24.902Z,17.10
2022-09-22T05:57:12.410Z,17.60
2022-09-22T06:00:00.633Z,18.20
2022-09-22T06:02:48.291Z,18.50
2022-09-22T06:05:38.954Z,18.90
2022-09-22T06:08:27.238Z,18.70
2022-09-22T06:11:14.800Z,18.00
2022-09-22T06:14:02.586Z,17.60
2022-09-22T06:16:50.184Z,17.20
2022-09-22T06:19:41.690Z,16.90
2022-09-22T06:22:29.300Z,16.90
2022-09-22T06:25:17.030Z,17.00
2022-09-22T06:28:11.090Z,16.40
2022-09-22T06:31:00.696Z,16.80
2022-09-22T06:33:51.279Z,16.80
2022-09-22T06:36:42.619Z,16.90
2022-09-22T06:39:30.190Z,17.20
2022-09-22T06:42:17.736Z,17.40
2022-09-22T06:45:06.159Z,17.30
2022-09-22T06:47:59.201Z,17.20
2022-09-22T06:50:53.434Z,17.90
2022-09-22T06:53:40.969Z,17.90
2022-09-22T06:56:30.214Z,17.90
2022-09-22T06:59:18.378Z,18.00
2022-09-22T07:02:07.699Z,18.00
2022-09-22T07:04:59.327Z,18.20
2022-09-22T07:07:46.938Z,17.80
2022-09-22T07:10:38.084Z,18.10
2022-09-22T07:13:30.133Z,17.50
2022-09-22T07:16:19.946Z,17.80
2022-09-22T07:19:08.279Z,18.00
2022-09-22T07:21:55.828Z,17.70
2022-09-22T07:24:43.725Z,18.00
2022-09-22T07:27:31.481Z,18.00
2022-09-22T07:30:20.697Z,17.90
2022-09-22T07:33:08.700Z,17.90
2022-09-22T07:36:10.052Z,18.20
2022-09-22T07:39:04.089Z,18.20
2022-09-22T07:41:51.975Z,18.50
2022-09-22T07:44:58.254Z,18.60
2022-09-22T07:48:04.970Z,18.80
2022-09-22T07:50:55.630Z,18.60
2022-09-22T07:53:43.180Z,19.50
2022-09-22T07:56:31.226Z,19.60
2022-09-22T07:59:19.143Z,19.80
2022-09-22T08:02:09.364Z,19.80
2022-09-22T08:05:04.226Z,20.40
2022-09-22T08:07:52.640Z,20.10
2022-09-22T08:10:40.254Z,20.40
2022-09-22T08:13:28.400Z,20.50
2022-09-22T08:16:17.784Z,20.80
2022-09-22T08:19:12.813Z,20.90
2022-09-22T08:22:00.341Z,21.00
2022-09-22T08:24:48.099Z,21.20
2022-09-22T08:27:37.565Z,21.20
2022-09-22T08:30:25.748Z,21.20
2022-09-22T08:33:13.590Z,21.30
2022-09-22T08:36:04.245Z,21.30
2022-09-22T08:38:51.856Z,21.50
2022-09-22T08:41:48.127Z,21.10
2022-09-22T08:44:52.118Z,21.30
2022-09-22T08:48:13.440Z,21.50
2022-09-22T08:51:37.182Z,21.60
2022-09-22T08:54:35.576Z,21.70
2022-09-22T08:57:23.114Z,21.50
2022-09-22T09:00:19.874Z,21.50
2022-09-22T09:03:28.561Z,21.70
2022-09-22T09:06:34.005Z,22.00
2022-09-22T09:09:42.579Z,22.40
2022-09-22T09:12:54.941Z,23.10
2022-09-22T09:16:32.971Z,23.60
2022-09-22T09:19:43.797Z,23.40
2022-09-22T09:22:44.915Z,23.70
2022-09-22T09:25:43.030Z,23.70
2022-09-22T09:28:54.145Z,23.50
2022-09-22T09:31:46.505Z,23.40
2022-09-22T09:34:34.249Z,23.40
2022-09-22T09:37:22.270Z,22.60
2022-09-22T09:40:18.615Z,22.20
2022-09-22T09:43:07.965Z,22.90
2022-09-22T09:46:23.614Z,23.00
2022-09-22T09:49:24.216Z,22.70
2022-09-22T09:52:14.804Z,23.10
2022-09-22T09:55:03.099Z,23.00
2022-09-22T09:58:33.021Z,22.90
2022-09-22T10:01:20.637Z,23.40
2022-09-22T10:04:33.923Z,23.50
2022-09-22T10:07:27.698Z,23.40
2022-09-22T10:10:34.255Z,23.20
2022-09-22T10:13:31.380Z,23.50
2022-09-22T10:16:28.556Z,23.70
2022-09-22T10:19:25.180Z,23.80
2022-09-22T10:22:28.744Z,23.90
2022-09-22T10:25:32.225Z,23.50
2022-09-22T10:28:22.838Z,24.00
2022-09-22T10:31:31.480Z,24.60
2022-09-22T10:34:39.029Z,24.70
2022-09-22T10:37:30.786Z,24.60
2022-09-22T10:40:22.045Z,25.00
2022-09-22T10:43:41.170Z,24.80
2022-09-22T10:47:06.370Z,24.50
2022-09-22T10:50:20.716Z,25.00
2022-09-22T10:53:27.968Z,24.90
2022-09-22T10:56:34.248Z,25.20
2022-09-22T10:59:52.108Z,25.10
2022-09-22T11:03:32.962Z,25.20
2022-09-22T11:07:26.038Z,25.30
2022-09-22T11:11:33.591Z,24.70
2022-09-22T11:14:49.177Z,25.30
2022-09-22T11:17:45.514Z,25.00
2022-09-22T11:21:24.733Z,25.50
2022-09-22T11:24:39.715Z,26.00
2022-09-22T11:27:51.810Z,25.90
2022-09-22T11:30:51.559Z,25.70
2022-09-22T11:34:17.479Z,25.90
2022-09-22T11:37:47.086Z,25.60
2022-09-22T11:41:15.780Z,26.00
2022-09-22T11:44:33.711Z,25.70
2022-09-22T11:47:30.215Z,25.90
2022-09-22T11:50:56.195Z,25.90
2022-09-22T11:54:30.412Z,25.60
2022-09-22T11:57:24.370Z,26.00
2022-09-22T12:00:19.323Z,26.40
2022-09-22T12:03:33.424Z,26.60
2022-09-22T12:06:32.085Z,26.50
2022-09-22T12:09:48.400Z,26.60
2022-09-22T12:12:37.520Z,26.80
2022-09-22T12:15:58.883Z,27.20
2022-09-22T12:19:34.980Z,26.90
2022-09-22T12:22:41.561Z,27.00
2022-09-22T12:25:55.934Z,27.00
2022-09-22T12:28:46.778Z,26.90
2022-09-22T12:31:40.490Z,27.30
2022-09-22T12:34:44.187Z,27.20
2022-09-22T12:37:39.705Z,26.70
2022-09-22T12:40:41.532Z,26.30
2022-09-22T12:43:31.675Z,26.00
2022-09-22T12:46:29.259Z,25.90
2022-09-22T12:49:23.506Z,26.10
2022-09-22T12:52:51.385Z,25.90
2022-09-22T12:55:39.814Z,25.70
2022-09-22T12:58:30.400Z,25.60
2022-09-22T13:01:34.662Z,25.50
2022-09-22T13:04:22.903Z,25.30
2022-09-22T13:07:37.762Z,25.10
2022-09-22T13:11:14.765Z,24.50
2022-09-22T13:14:02.316Z,24.30
2022-09-22T13:16:49.975Z,24.20
2022-09-22T13:19:37.680Z,24.10
2022-09-22T13:22:25.718Z,24.00
2022-09-22T13:25:21.284Z,24.10
2022-09-22T13:28:08.795Z,24.20
2022-09-22T13:31:14.141Z,24.30
2022-09-22T13:34:37.542Z,24.20
2022-09-22T13:37:25.600Z,24.10
2022-09-22T13:40:13.385Z,24.20
2022-09-22T13:43:12.390Z,24.10
2022-09-22T13:46:02.844Z,24.00
2022-09-22T13:48:55.642Z,24.00
2022-09-22T13:51:48.639Z,23.90
2022-09-22T13:54:39.160Z,24.30
2022-09-22T13:57:37.348Z,24.30
2022-09-22T14:01:12.170Z,24.00
2022-09-22T14:03:57.686Z,23.60
2022-09-22T14:06:46.374Z,23.70
2022-09-22T14:09:37.990Z,24.20
2022-09-22T14:12:28.866Z,24.70
2022-09-22T14:15:35.224Z,25.10
2022-09-22T14:18:28.730Z,25.50
2022-09-22T14:21:16.985Z,25.30
2022-09-22T14:24:06.991Z,25.50
2022-09-22T14:27:04.230Z,25.90
2022-09-22T14:29:55.962Z,26.20
2022-09-22T14:32:53.271Z,25.80
2022-09-22T14:35:41.796Z,26.20
2022-09-22T14:38:37.599Z,26.70
2022-09-22T14:41:33.742Z,24.50
2022-09-22T14:44:41.349Z,25.70
2022-09-22T14:47:32.542Z,25.30
2022-09-22T14:50:40.709Z,23.60
2022-09-22T14:53:34.035Z,23.20
2022-09-22T14:56:34.275Z,22.00
2022-09-22T14:59:40.552Z,22.40
2022-09-22T15:02:34.278Z,21.80
2022-09-22T15:05:32.552Z,21.60
2022-09-22T15:08:29.681Z,22.80
2022-09-22T15:11:19.189Z,22.80
2022-09-22T15:14:42.790Z,22.80
2022-09-22T15:18:07.123Z,22.70
2022-09-22T15:21:22.175Z,23.00
2022-09-22T15:24:11.100Z,23.80
2022-09-22T15:27:00.233Z,23.90
2022-09-22T15:29:49.747Z,23.70
2022-09-22T15:32:37.407Z,23.50
2022-09-22T15:35:27.250Z,23.40
2022-09-22T15:38:27.717Z,23.20
2022-09-22T15:41:16.871Z,23.10
2022-09-22T15:44:04.681Z,23.00
2022-09-22T15:46:54.745Z,23.00
2022-09-22T15:49:42.844Z,22.60
2022-09-22T15:52:30.358Z,22.40
2022-09-22T15:55:21.882Z,22.10
2022-09-22T15:58:14.319Z,22.00
2022-09-22T16:01:03.252Z,21.90
2022-09-22T16:03:52.049Z,21.90
2022-09-22T16:06:42.809Z,22.10
2022-09-22T16:09:31.347Z,22.30
2022-09-22T16:12:23.233Z,22.30
2022-09-22T16:15:15.576Z,22.30
2022-09-22T16:18:03.152Z,22.30
2022-09-22T16:20:51.878Z,22.40
2022-09-22T16:23:39.475Z,22.40
2022-09-22T16:26:29.587Z,22.30
2022-09-22T16:29:17.274Z,22.40
2022-09-22T16:32:05.179Z,22.10
2022-09-22T16:34:53.737Z,22.00
2022-09-22T16:37:41.347Z,21.90
2022-09-22T16:40:29.746Z,21.80
2022-09-22T16:43:17.474Z,21.70
2022-09-22T16:46:23.931Z,21.50
2022-09-22T16:49:16.522Z,20.80
2022-09-22T16:52:04.251Z,20.90
2022-09-22T16:54:51.857Z,20.80
2022-09-22T16:57:39.413Z,20.90
2022-09-22T17:00:27.501Z,20.80
2022-09-22T17:03:15.022Z,20.50
2022-09-22T17:06:08.351Z,20.30
2022-09-22T17:08:59.148Z,20.10
2022-09-22T17:11:49.499Z,19.90
2022-09-22T17:14:37.413Z,19.90
2022-09-22T17:17:25.206Z,19.90
2022-09-22T17:20:13.032Z,19.80
2022-09-22T17:23:00.583Z,19.70
2022-09-22T17:25:48.228Z,19.70
2022-09-22T17:28:36.383Z,19.50
2022-09-22T17:31:24.038Z,19.50
2022-09-22T17:34:13.028Z,19.40
2022-09-22T17:37:03.235Z,19.60
2022-09-22T17:39:50.925Z,19.50
2022-09-22T17:42:38.594Z,19.60
2022-09-22T17:45:26.159Z,19.10
2022-09-22T17:48:32.314Z,18.80
2022-09-22T17:52:14.059Z,18.80
2022-09-22T17:55:09.337Z,18.60
2022-09-22T17:57:57.459Z,18.70
2022-09-22T18:00:45.078Z,18.60
2022-09-22T18:03:32.732Z,18.80
2022-09-22T18:06:21.099Z,18.80
2022-09-22T18:09:08.756Z,18.70
2022-09-22T18:11:56.347Z,18.70
2022-09-22T18:14:46.142Z,18.90
2022-09-22T18:17:43.153Z,18.50
2022-09-22T18:20:32.663Z,18.30
2022-09-22T18:23:20.313Z,18.10
2022-09-22T18:26:07.896Z,17.80
2022-09-22T18:28:55.496Z,17.60
2022-09-22T18:31:44.190Z,17.50
2022-09-22T18:34:34.546Z,17.30
2022-09-22T18:37:24.783Z,17.20
2022-09-22T18:40:12.833Z,17.20
2022-09-22T18:43:00.794Z,17.00
2022-09-22T18:45:48.398Z,17.00
2022-09-22T18:48:36.006Z,16.70
2022-09-22T18:51:28.369Z,16.50
2022-09-22T18:54:21.561Z,16.40
2022-09-22T18:57:14.124Z,16.50
2022-09-22T19:00:01.934Z,16.40
2022-09-22T19:02:50.582Z,16.30
2022-09-22T19:05:38.319Z,16.40
2022-09-22T19:08:27.414Z,16.40
2022-09-22T19:11:17.614Z,16.20
2022-09-22T19:14:05.107Z,16.30
2022-09-22T19:16:53.614Z,16.20
2022-09-22T19:19:42.272Z,16.30
2022-09-22T19:22:31.358Z,16.10
2022-09-22T19:25:21.608Z,16.00
2022-09-22T19:28:13.118Z,16.00
2022-09-22T19:31:00.831Z,16.10
2022-09-22T19:33:48.530Z,16.00
2022-09-22T19:36:37.479Z,16.10
2022-09-22T19:39:26.585Z,16.00
2022-09-22T19:42:15.585Z,15.90
2022-09-22T19:45:04.771Z,15.80
2022-09-22T19:47:59.120Z,15.50
2022-09-22T19:50:47.097Z,15.60
2022-09-22T19:53:34.752Z,15.70
2022-09-22T19:56:22.364Z,15.60
2022-09-22T19:59:09.981Z,15.50
2022-09-22T20:01:57.643Z,15.50
2022-09-22T20:04:45.862Z,15.50
2022-09-22T20:07:33.415Z,15.50
2022-09-22T20:10:22.821Z,15.40
2022-09-22T20:13:30.405Z,15.40
2022-09-22T20:16:18.078Z,15.40
2022-09-22T20:19:05.778Z,15.40
2022-09-22T20:22:17.096Z,15.40
2022-09-22T20:25:05.199Z,15.40
2022-09-22T20:27:52.787Z,15.40
2022-09-22T20:30:42.315Z,15.30
2022-09-22T20:33:30.006Z,15.40
2022-09-22T20:36:19.890Z,15.30
2022-09-22T20:39:07.629Z,15.40
2022-09-22T20:41:55.267Z,15.30
2022-09-22T20:44:44.150Z,15.20
2022-09-22T20:47:32.531Z,15.20
2022-09-22T20:50:21.359Z,15.20
2022-09-22T20:53:08.915Z,14.90
2022-09-22T20:56:04.765Z,15.00
2022-09-22T20:58:52.370Z,14.90
2022-09-22T21:01:39.952Z,15.10
2022-09-22T21:04:29.890Z,15.00
2022-09-22T21:07:17.417Z,15.00
2022-09-22T21:10:24.431Z,15.00
2022-09-22T21:13:13.085Z,14.90
2022-09-22T21:16:04.837Z,15.00
2022-09-22T21:18:53.505Z,15.00
2022-09-22T21:21:41.165Z,15.00
2022-09-22T21:24:30.226Z,15.00
2022-09-22T21:27:17.860Z,14.90
2022-09-22T21:30:06.246Z,14.90
2022-09-22T21:32:53.785Z,14.80
2022-09-22T21:35:41.390Z,14.90
2022-09-22T21:38:30.435Z,14.80
2022-09-22T21:41:21.170Z,14.80
2022-09-22T21:44:08.754Z,14.80
2022-09-22T21:46:56.270Z,14.80
2022-09-22T21:49:43.731Z,14.70
2022-09-22T21:52:32.365Z,14.70
2022-09-22T21:55:20.495Z,14.70
2022-09-22T21:58:08.594Z,14.80
2022-09-22T22:00:57.264Z,14.80
2022-09-22T22:03:46.884Z,14.90
2022-09-22T22:06:40.937Z,14.80
2022-09-22T22:09:28.619Z,14.90
2022-09-22T22:12:16.784Z,14.80
2022-09-22T22:15:05.345Z,14.70
2022-09-22T22:17:52.867Z,14.70
2022-09-22T22:20:40.370Z,14.50
2022-09-22T22:23:33.117Z,14.50
2022-09-22T22:26:25.279Z,14.40
2022-09-22T22:29:13.099Z,14.30
2022-09-22T22:32:01.774Z,14.30
2022-09-22T22:34:50.004Z,14.20
2022-09-22T22:37:38.590Z,14.20
2022-09-22T22:40:26.259Z,14.20
2022-09-22T22:43:19.034Z,14.20
2022-09-22T22:46:08.954Z,14.20
2022-09-22T22:48:57.733Z,14.20
2022-09-22T22:51:45.394Z,14.30
2022-09-22T22:54:32.894Z,14.40
2022-09-22T22:57:20.462Z,14.40
2022-09-22T23:00:09.275Z,14.30
2022-09-22T23:02:56.957Z,14.50
2022-09-22T23:05:54.426Z,14.60
2022-09-22T23:08:43.601Z,14.80
2022-09-22T23:11:40.151Z,14.90
2022-09-22T23:14:27.880Z,14.70
2022-09-22T23:17:15.838Z,14.70
2022-09-22T23:20:06.929Z,14.60
2022-09-22T23:22:54.440Z,14.30
2022-09-22T23:25:42.049Z,14.10
2022-09-22T23:28:33.926Z,14.40
2022-09-22T23:31:22.344Z,14.50
2022-09-22T23:34:09.979Z,14.40
2022-09-22T23:36:57.745Z,14.40
2022-09-22T23:39:45.361Z,14.40
2022-09-22T23:42:33.196Z,14.40
2022-09-22T23:45:21.455Z,14.50
2022-09-22T23:48:09.566Z,14.40
2022-09-22T23:50:58.811Z,14.30
2022-09-22T23:53:46.387Z,14.20
2022-09-22T23:56:34.000Z,14.40
2022-09-22T23:59:21.444Z,14.50
